Hlavní strana
METAR-TAF:

METAR-TAF

Letiště :

Vardø, Norsko

zeměpisná šířka: 70-21N, zeměpisná délka: 031-03E, výška: 12 m

Aktuální stav počasí

Zpráva byla vytvořena před 21 minutami, v 07:50 UTC
Jihojihovýchodní vítr 3 kt
Teplota 10°C
Vlhkost vzduchu 100%
Tlak 1007 hPa
Viditelnost: 3000 m
Skoro jasno ve výšce 300 ft
Oblačno až skoro zataženo ve výšce 1700 ft
mlha v blízkosti

METAR: ENSS 220750Z 15003KT 9999 3000S VCFG FEW003 BKN017 10/10 Q1007 RMK WIND 500FT 26006KT

Čas: 10:11 (08:11 UTC)


TAF: chybějící

Stav a předpovědi počasí z více než 4 000 letišť (zprávy METAR a TAF).

Červené a žluté tečky na mapě představují dostupné meteorologické stanice.

Když kurzor umístíte na tečku, zobrazí se název stanice.

Pak kliknutím zobrazíte stav a předpověď počasí.

Chcete-li změnit mapu, kliknutím na zelené tlačítko se znaménkem +mapu přiblížíte, kliknutím na zelené tlačítko se znaménkem – mapu oddálíte a kliknutím na zelené šipky přejdete na sousední mapy.


METAR-TAF: